WetterOnline ( http://www.wetteronline.de )

Wetter aktuell Schkeuditz

Aktuelles Wetter: Leipzig/Halle (136m)

6-stündlich | Neueste Meldungen
Ortszeit Temperatur Wetter
Fr, 19.10. 8:00 8.0° C wolkig
Fr, 19.10. 2:00 12.1° C bedeckt
Do, 18.10. 20:00 13.7° C bedeckt
Do, 18.10. 14:00 12.2° C Dunst
Do, 18.10. 8:00 7.6° C Nebel (abnehmend)
Do, 18.10. 2:00 9.8° C wolkenlos
Mi, 17.10. 20:00 15.1° C wolkenlos
Mi, 17.10. 14:00 19.3° C leicht bewölkt
Ortszeit Temperatur Wetter
Fr, 19.10. 9:00 8.1° C bewölkt
Fr, 19.10. 8:50 8° C bewölkt
Fr, 19.10. 8:20 8° C bewölkt
Fr, 19.10. 8:00 8.0° C wolkig
Fr, 19.10. 7:50 8° C bewölkt
Fr, 19.10. 7:20 8° C bewölkt
Fr, 19.10. 7:00 8.4° C bewölkt
Fr, 19.10. 6:20 9° C bedeckt
Fr, 19.10. 6:00 9.3° C bedeckt
Fr, 19.10. 5:20 10° C bewölkt
Ortszeit Relative Feuchte Sichtweite
Fr, 19.10. 8:00 93% 18 km
Fr, 19.10. 2:00 88% 10 km
Do, 18.10. 20:00 87% 10 km
Do, 18.10. 14:00 90% 3.0 km
Do, 18.10. 8:00 97% 0.8 km
Do, 18.10. 2:00 93% 6 km
Mi, 17.10. 20:00 67% 10 km
Mi, 17.10. 14:00 56% 12 km
Ortszeit Relative Feuchte Sichtweite
Fr, 19.10. 9:00 91% 20 km
Fr, 19.10. 8:50 93% >10 km
Fr, 19.10. 8:20 93% >10 km
Fr, 19.10. 8:00 93% 18 km
Fr, 19.10. 7:50 93% >10 km
Fr, 19.10. 7:20 93% >10 km
Fr, 19.10. 7:00 93% 15 km
Fr, 19.10. 6:20 93% >10 km
Fr, 19.10. 6:00 94% 10 km
Fr, 19.10. 5:20 93% >10 km
Ortszeit Niederschlagsmenge Niederschlagsart
Fr, 19.10. 8:00 0.0 l/m2 in 12 Std. -
Fr, 19.10. 2:00 0.0 l/m2 in 6 Std. -
Do, 18.10. 20:00 0.0 l/m2 in 12 Std. -
Do, 18.10. 14:00 0.0 l/m2 in 6 Std. Nebel
Do, 18.10. 8:00 0.0 l/m2 in 12 Std. Nebel
Do, 18.10. 2:00 0.0 l/m2 in 6 Std. -
Mi, 17.10. 20:00 0.0 l/m2 in 12 Std. -
Mi, 17.10. 14:00 0.0 l/m2 in 6 Std. -
Ortszeit Niederschlagsmenge Niederschlagsart
Fr, 19.10. 9:00 0.0 l/m2 in 1 Std. -
Fr, 19.10. 8:50 keine Meldung -
Fr, 19.10. 8:20 keine Meldung -
Fr, 19.10. 8:00 0.0 l/m2 in 1 Std. -
Fr, 19.10. 7:50 keine Meldung -
Fr, 19.10. 7:20 keine Meldung -
Fr, 19.10. 7:00 0.0 l/m2 in 1 Std. -
Fr, 19.10. 6:20 keine Meldung -
Fr, 19.10. 6:00 0.0 l/m2 in 1 Std. -
Fr, 19.10. 5:20 keine Meldung -
Ortszeit Stärke Spitze Richtung
km/h Bft. km/h Grad Sektor
Fr, 19.10. 8:00 7 2 22 350° N
Fr, 19.10. 2:00 7 2 25 10° N
Do, 18.10. 20:00 7 2 25 340° N
Do, 18.10. 14:00 14 3 29 340° N
Do, 18.10. 8:00 9 2 11 270° W
Do, 18.10. 2:00 9 2 11 250° W
Mi, 17.10. 20:00 7 2 11 100° O
Mi, 17.10. 14:00 4 1 11 140° SO
Ortszeit Stärke Spitze Richtung
km/h Bft. km/h Grad Sektor
Fr, 19.10. 9:00 9 2 13 330° NW
Fr, 19.10. 8:50 11 2 - 340° N
Fr, 19.10. 8:20 9 2 - 360° N
Fr, 19.10. 8:00 7 2 14 350° N
Fr, 19.10. 7:50 11 2 - 360° N
Fr, 19.10. 7:20 11 2 - 350° N
Fr, 19.10. 7:00 9 2 15 340° N
Fr, 19.10. 6:20 11 2 - 340° N
Fr, 19.10. 6:00 9 2 15 340° N
Fr, 19.10. 5:20 13 3 - 340° N
Ortszeit Untergrenze Bedeckung Gattung
total tief tief mittel hoch
Fr, 19.10. 8:00 450 m 6/8 6/8 Cu - -
Fr, 19.10. 2:00 300 m 8/8 8/8 Sc - -
Do, 18.10. 20:00 450 m 8/8 8/8 Sc - -
Do, 18.10. 14:00 90 m 8/8 8/8 St - -
Do, 18.10. 8:00 390 m 6/8 3/8 Sc Ac Ci
Do, 18.10. 2:00 - 0/8 0/8 - - -
Mi, 17.10. 20:00 - 0/8 0/8 - - -
Mi, 17.10. 14:00 3000 m 2/8 2/8 - Ac -
Ortszeit Bedeckungsgrad in Achtel und Wolkenuntergrenze
Fr, 19.10. 9:00 7(1380m)
Fr, 19.10. 8:50 5-7(1380m)
Fr, 19.10. 8:20 1-2(450m) 5-7(1380m)
Fr, 19.10. 8:00 1(450m) 6(1380m)
Fr, 19.10. 7:50 1-2(450m) 5-7(1380m)
Fr, 19.10. 7:20 5-7(1470m)
Fr, 19.10. 7:00 2(150m) 7(1500m)
Fr, 19.10. 6:20 1-2(120m) 8(1440m)
Fr, 19.10. 6:00 2(120m) 8(1380m)
Fr, 19.10. 5:20 5-7(1380m)
Ortszeit Luftdruck NN (hPa) Tendenz (hPa in 3 Std.)
Fr, 19.10. 8:00 1025 + 0,6
Fr, 19.10. 2:00 1024 + 0,1
Do, 18.10. 20:00 1023 + 0,9
Do, 18.10. 14:00 1022 + 0,3
Do, 18.10. 8:00 1021 + 0,9
Do, 18.10. 2:00 1020 - 0,2
Mi, 17.10. 20:00 1019 + 0,7
Mi, 17.10. 14:00 1019 - 0,7
Ortszeit Luftdruck NN (hPa) Tendenz (hPa in 3 Std.)
Fr, 19.10. 9:00 1026 + 1,1
Fr, 19.10. 8:50 1025 keine Meldung
Fr, 19.10. 8:20 1025 keine Meldung
Fr, 19.10. 8:00 1025 + 0,6
Fr, 19.10. 7:50 1024 keine Meldung
Fr, 19.10. 7:20 1024 keine Meldung
Fr, 19.10. 7:00 1025 + 0,6
Fr, 19.10. 6:20 1024 keine Meldung
Fr, 19.10. 6:00 1025 + 0,4
Fr, 19.10. 5:20 1024 keine Meldung
Ortszeit Schneehöhe (cm)
Fr, 19.10. 8:00 0
Fr, 19.10. 2:00 0
Do, 18.10. 20:00 0
Do, 18.10. 14:00 0
Do, 18.10. 8:00 0
Do, 18.10. 2:00 0
Mi, 17.10. 20:00 0
Mi, 17.10. 14:00 0
Ortszeit Schneehöhe (cm)
Fr, 19.10. 9:00 -
Fr, 19.10. 8:50 -
Fr, 19.10. 8:20 -
Fr, 19.10. 8:00 0
Fr, 19.10. 7:50 -
Fr, 19.10. 7:20 -
Fr, 19.10. 7:00 -
Fr, 19.10. 6:20 -
Fr, 19.10. 6:00 -
Fr, 19.10. 5:20 -
Link zu dieser Seite / Seite empfehlen

Das Wetter in ...